Time;durP1;ratioP1;P1;durP2;ratioP2;P2;SDS_P1;SDS_P2;PMS_P1;PMS_P2;Temp;Humidity;BMP_temperature;BMP_pressure;BME280_temperature;BME280_humidity;BME280_pressure;Samples;Min_cycle;Max_cycle;Signal;HPM_P1;HPM_P2
2023/02/21 02:14:47;;;;;;;4.25;1.83;;;;;;;;;;5016340;28;20037;-83
2023/02/21 02:17:13;;;;;;;4.38;1.90;;;;;;;;;;5020825;28;20029;-81
2023/02/21 02:19:57;;;;;;;5.35;2.20;;;;;;;;;;5030907;28;20018;-82
2023/02/21 02:22:52;;;;;;;5.03;2.25;;;;;;;;;;5032214;28;20029;-83
2023/02/21 02:25:30;;;;;;;5.20;2.30;;;;;;;;;;5010813;28;20623;-83
2023/02/21 02:28:14;;;;;;;5.72;2.17;;;;;;;;;;5036106;28;20075;-82
2023/02/21 02:31:04;;;;;;;5.00;2.30;;;;;;;;;;5035976;28;20017;-83
2023/02/21 02:33:42;;;;;;;5.07;2.35;;;;;;;;;;5016233;28;20065;-82
2023/02/21 02:36:17;;;;;;;4.43;2.30;;;;;;;;;;5035427;28;20060;-82
2023/02/21 02:38:59;;;;;;;4.55;2.00;;;;;;;;;;5035522;28;20034;-81
2023/02/21 02:41:31;;;;;;;4.80;2.08;;;;;;;;;;5035632;28;20079;-82
2023/02/21 02:44:15;;;;;;;4.93;2.05;;;;;;;;;;5016360;28;20109;-83
2023/02/21 02:46:41;;;;;;;4.50;2.20;;;;;;;;;;5019699;28;20033;-82
2023/02/21 02:49:10;;;;;;;5.45;2.50;;;;;;;;;;5035437;28;20089;-82
2023/02/21 02:51:36;;;;;;;4.60;2.05;;;;;;;;;;5034940;28;20084;-82
2023/02/21 02:54:02;;;;;;;5.90;2.30;;;;;;;;;;5036794;28;20021;-82
2023/02/21 02:56:29;;;;;;;5.10;1.90;;;;;;;;;;5034329;28;20490;-82
2023/02/21 02:59:06;;;;;;;6.20;2.10;;;;;;;;;;5034100;28;20033;-83
2023/02/21 03:01:48;;;;;;;4.47;1.80;;;;;;;;;;5052224;28;20025;-82
2023/02/21 03:04:17;;;;;;;4.88;1.90;;;;;;;;;;5034606;28;20031;-83
2023/02/21 03:07:02;;;;;;;4.45;2.03;;;;;;;;;;5036419;28;20558;-82
2023/02/21 03:09:28;;;;;;;3.90;1.80;;;;;;;;;;5027696;28;20063;-82
2023/02/21 03:12:03;;;;;;;3.88;2.10;;;;;;;;;;5033679;28;20022;-83
2023/02/21 03:14:34;;;;;;;3.78;1.90;;;;;;;;;;5036328;28;20534;-82
2023/02/21 03:17:08;;;;;;;5.55;2.15;;;;;;;;;;5035202;28;20081;-82
2023/02/21 03:19:37;;;;;;;4.55;1.70;;;;;;;;;;5035161;28;20022;-82
2023/02/21 03:22:05;;;;;;;4.65;1.85;;;;;;;;;;5037721;28;20025;-81
2023/02/21 03:24:33;;;;;;;4.55;2.10;;;;;;;;;;5039857;28;20048;-83
2023/02/21 03:27:01;;;;;;;6.15;2.10;;;;;;;;;;5039001;28;20032;-83
2023/02/21 03:29:28;;;;;;;5.40;2.38;;;;;;;;;;5038429;28;20017;-83
2023/02/21 03:34:36;;;;;;;3.70;1.60;;;;;;;;;;5039913;28;20040;-82
2023/02/21 03:37:02;;;;;;;4.10;1.80;;;;;;;;;;5037644;28;20089;-83
2023/02/21 03:39:28;;;;;;;4.18;1.80;;;;;;;;;;5037159;28;20069;-82
2023/02/21 03:41:54;;;;;;;4.90;2.25;;;;;;;;;;5039691;28;20044;-83
2023/02/21 03:44:20;;;;;;;3.50;1.58;;;;;;;;;;5038013;28;20495;-82
2023/02/21 03:46:46;;;;;;;5.40;2.72;;;;;;;;;;5037613;28;20036;-82
2023/02/21 03:49:12;;;;;;;4.50;2.17;;;;;;;;;;5037878;28;20065;-83
2023/02/21 03:51:38;;;;;;;5.65;2.33;;;;;;;;;;5039617;28;20040;-83
2023/02/21 03:54:04;;;;;;;4.90;2.13;;;;;;;;;;5038575;28;20032;-83
2023/02/21 03:56:30;;;;;;;4.60;1.90;;;;;;;;;;5037028;28;20044;-82
2023/02/21 03:58:56;;;;;;;5.63;2.40;;;;;;;;;;5029151;28;20053;-82
2023/02/21 04:01:22;;;;;;;4.43;2.30;;;;;;;;;;5038185;28;20040;-82
2023/02/21 04:03:49;;;;;;;5.13;2.33;;;;;;;;;;5039912;28;20096;-81
2023/02/21 04:06:15;;;;;;;8.07;2.00;;;;;;;;;;5038076;28;20045;-82
2023/02/21 04:08:41;;;;;;;5.85;2.75;;;;;;;;;;5038140;28;20463;-82
2023/02/21 04:11:07;;;;;;;4.43;1.98;;;;;;;;;;5037158;28;20542;-82
2023/02/21 04:13:33;;;;;;;4.85;2.25;;;;;;;;;;5036281;28;20030;-82
2023/02/21 04:15:59;;;;;;;4.50;1.90;;;;;;;;;;5038983;28;20715;-82
2023/02/21 04:18:25;;;;;;;4.75;1.90;;;;;;;;;;5036919;28;20484;-82
2023/02/21 04:20:51;;;;;;;3.97;1.88;;;;;;;;;;5039748;28;20033;-82
2023/02/21 04:23:21;;;;;;;4.60;1.80;;;;;;;;;;5037594;28;20022;-82
2023/02/21 04:25:47;;;;;;;4.10;1.77;;;;;;;;;;5038418;28;20030;-82
2023/02/21 04:28:13;;;;;;;5.50;2.00;;;;;;;;;;5038006;28;20049;-81
2023/02/21 04:30:39;;;;;;;3.80;1.70;;;;;;;;;;5038300;28;20534;-81
2023/02/21 04:33:05;;;;;;;5.22;1.70;;;;;;;;;;5037247;28;20030;-83
2023/02/21 04:35:31;;;;;;;4.05;2.00;;;;;;;;;;5038135;28;20083;-82
2023/02/21 04:37:57;;;;;;;5.43;2.20;;;;;;;;;;5037943;28;20029;-82
2023/02/21 04:40:23;;;;;;;4.32;1.80;;;;;;;;;;5037215;28;20033;-79
2023/02/21 04:42:49;;;;;;;5.82;2.40;;;;;;;;;;5024037;28;20495;-83
2023/02/21 04:45:15;;;;;;;4.55;2.03;;;;;;;;;;5034134;28;20040;-82
2023/02/21 04:47:41;;;;;;;4.63;2.13;;;;;;;;;;5033681;28;20067;-82
2023/02/21 04:50:07;;;;;;;5.10;2.03;;;;;;;;;;5035984;28;20025;-82
2023/02/21 04:52:33;;;;;;;5.05;1.90;;;;;;;;;;5036865;28;20052;-83
2023/02/21 04:54:59;;;;;;;5.60;2.40;;;;;;;;;;5038467;28;20353;-81
2023/02/21 04:57:25;;;;;;;4.00;1.85;;;;;;;;;;5038054;28;20030;-81
2023/02/21 04:59:59;;;;;;;6.30;2.33;;;;;;;;;;5034186;28;20083;-81
2023/02/21 05:02:25;;;;;;;4.18;1.80;;;;;;;;;;5030448;28;20017;-81
2023/02/21 05:04:51;;;;;;;5.13;2.08;;;;;;;;;;5026359;28;20052;-82
2023/02/21 05:07:17;;;;;;;4.40;2.13;;;;;;;;;;5036069;28;20527;-81
2023/02/21 05:09:43;;;;;;;5.65;2.10;;;;;;;;;;5036178;28;20030;-82
2023/02/21 05:12:10;;;;;;;4.40;2.00;;;;;;;;;;5019381;28;20106;-81
2023/02/21 05:14:38;;;;;;;5.82;2.38;;;;;;;;;;5033725;28;20017;-81
2023/02/21 05:17:04;;;;;;;4.60;1.98;;;;;;;;;;5018965;28;20054;-82
2023/02/21 05:19:31;;;;;;;5.47;2.50;;;;;;;;;;5033133;28;20475;-81
2023/02/21 05:21:57;;;;;;;6.18;2.45;;;;;;;;;;5038239;28;20029;-82
2023/02/21 05:27:27;;;;;;;5.47;2.42;;;;;;;;;;5019618;28;20514;-81
2023/02/21 05:29:53;;;;;;;4.85;2.30;;;;;;;;;;5034687;28;20037;-81
2023/02/21 05:32:21;;;;;;;5.63;2.35;;;;;;;;;;5037841;28;20116;-81
2023/02/21 05:34:47;;;;;;;8.15;2.75;;;;;;;;;;5035232;28;20022;-79
2023/02/21 05:37:14;;;;;;;6.28;2.53;;;;;;;;;;5037239;28;20072;-78
2023/02/21 05:39:40;;;;;;;6.20;2.75;;;;;;;;;;5054772;28;20026;-81
2023/02/21 05:42:09;;;;;;;5.00;2.03;;;;;;;;;;5024061;28;20045;-80
2023/02/21 05:44:35;;;;;;;5.28;2.17;;;;;;;;;;5031231;28;20029;-81
2023/02/21 05:47:01;;;;;;;4.90;2.40;;;;;;;;;;5034784;28;20059;-82
2023/02/21 05:49:28;;;;;;;5.97;2.90;;;;;;;;;;5030419;28;20056;-81
2023/02/21 05:51:54;;;;;;;5.95;2.40;;;;;;;;;;5037555;28;20071;-80
2023/02/21 05:54:21;;;;;;;5.15;2.25;;;;;;;;;;5041222;28;20075;-82
2023/02/21 05:56:48;;;;;;;7.18;2.40;;;;;;;;;;5038557;28;20411;-82
2023/02/21 05:59:15;;;;;;;5.07;2.50;;;;;;;;;;5034060;28;20395;-82
2023/02/21 06:01:41;;;;;;;5.97;2.50;;;;;;;;;;5040359;28;20052;-82
2023/02/21 06:04:07;;;;;;;6.65;2.63;;;;;;;;;;5026957;28;20511;-82
2023/02/21 06:06:34;;;;;;;6.40;2.67;;;;;;;;;;5017996;28;20100;-81
2023/02/21 06:09:00;;;;;;;6.18;2.30;;;;;;;;;;5047863;28;20029;-82
2023/02/21 06:11:27;;;;;;;5.70;2.67;;;;;;;;;;5038471;28;20040;-79
2023/02/21 06:13:54;;;;;;;6.38;2.75;;;;;;;;;;5037277;28;20379;-84
2023/02/21 06:16:20;;;;;;;4.68;2.20;;;;;;;;;;5036292;28;20108;-81
2023/02/21 06:18:51;;;;;;;4.95;2.05;;;;;;;;;;5037806;28;20017;-83
2023/02/21 06:21:17;;;;;;;5.20;2.45;;;;;;;;;;5036348;28;20068;-83
2023/02/21 06:23:43;;;;;;;5.93;2.22;;;;;;;;;;5035839;28;20025;-83
2023/02/21 06:26:09;;;;;;;6.03;2.25;;;;;;;;;;5037077;28;20029;-82
2023/02/21 06:28:35;;;;;;;6.10;2.83;;;;;;;;;;5042694;28;20055;-83
2023/02/21 06:31:02;;;;;;;5.75;2.53;;;;;;;;;;5052966;28;20444;-82
2023/02/21 06:33:28;;;;;;;5.38;2.22;;;;;;;;;;5055187;28;20082;-83
2023/02/21 06:35:54;;;;;;;5.70;3.03;;;;;;;;;;5055079;28;20021;-82
2023/02/21 06:38:20;;;;;;;5.72;2.63;;;;;;;;;;5049194;28;20439;-82
2023/02/21 06:40:46;;;;;;;4.70;2.60;;;;;;;;;;5032204;28;20035;-82
2023/02/21 06:43:12;;;;;;;5.18;2.40;;;;;;;;;;5032846;28;20144;-82
2023/02/21 06:45:38;;;;;;;6.45;2.50;;;;;;;;;;5037328;28;20482;-81
2023/02/21 06:48:04;;;;;;;5.22;2.58;;;;;;;;;;5034965;28;20029;-83
2023/02/21 06:50:30;;;;;;;6.88;2.55;;;;;;;;;;5037429;28;20053;-83
2023/02/21 06:52:56;;;;;;;7.57;2.97;;;;;;;;;;5036980;28;20100;-83
2023/02/21 06:55:23;;;;;;;5.22;2.50;;;;;;;;;;5037571;28;20021;-83
2023/02/21 06:57:49;;;;;;;6.13;2.80;;;;;;;;;;5036992;28;20529;-83
2023/02/21 07:00:18;;;;;;;5.97;2.72;;;;;;;;;;5037182;28;20017;-83
2023/02/21 07:02:44;;;;;;;6.15;2.50;;;;;;;;;;5037251;28;20026;-82
2023/02/21 07:05:10;;;;;;;7.45;2.70;;;;;;;;;;5052162;28;20517;-82
2023/02/21 07:07:37;;;;;;;7.45;2.80;;;;;;;;;;5042555;28;20049;-82
2023/02/21 07:10:04;;;;;;;6.35;2.58;;;;;;;;;;5038695;28;20037;-83
2023/02/21 07:12:30;;;;;;;5.13;2.30;;;;;;;;;;5043613;28;20506;-83
2023/02/21 07:14:56;;;;;;;5.45;2.70;;;;;;;;;;5034448;28;20021;-81
2023/02/21 07:17:22;;;;;;;6.22;2.70;;;;;;;;;;5033091;28;20026;-82
2023/02/21 07:19:48;;;;;;;7.47;2.90;;;;;;;;;;5035792;28;20030;-82
2023/02/21 07:22:14;;;;;;;6.97;3.20;;;;;;;;;;5036458;28;20029;-83
2023/02/21 07:24:40;;;;;;;7.18;2.83;;;;;;;;;;5043317;28;20040;-82
2023/02/21 07:27:06;;;;;;;5.10;2.83;;;;;;;;;;5037859;28;20101;-82
2023/02/21 07:29:32;;;;;;;6.22;3.42;;;;;;;;;;5034526;28;20120;-82
2023/02/21 07:31:58;;;;;;;7.82;2.88;;;;;;;;;;5034725;28;20064;-82
2023/02/21 07:34:24;;;;;;;6.80;2.83;;;;;;;;;;5035796;28;20479;-83
2023/02/21 07:36:50;;;;;;;6.57;3.58;;;;;;;;;;5033481;28;20034;-82
2023/02/21 07:39:17;;;;;;;5.30;2.63;;;;;;;;;;5037864;28;20021;-81
2023/02/21 07:41:43;;;;;;;6.78;3.15;;;;;;;;;;5044786;28;20053;-81
2023/02/21 07:44:09;;;;;;;6.13;3.45;;;;;;;;;;5039010;28;20069;-83
2023/02/21 07:46:35;;;;;;;6.75;3.08;;;;;;;;;;5036098;28;20018;-82
2023/02/21 07:49:01;;;;;;;5.50;3.00;;;;;;;;;;5035741;28;20053;-82
2023/02/21 07:51:28;;;;;;;5.63;3.40;;;;;;;;;;5035744;28;20045;-83
2023/02/21 07:53:54;;;;;;;7.97;3.13;;;;;;;;;;5035638;28;20030;-80
2023/02/21 07:56:21;;;;;;;6.35;3.13;;;;;;;;;;5035429;28;20030;-81
2023/02/21 07:58:47;;;;;;;7.10;3.08;;;;;;;;;;5032431;28;20164;-80
2023/02/21 08:01:13;;;;;;;7.07;3.03;;;;;;;;;;5031771;28;20123;-79
2023/02/21 08:03:39;;;;;;;6.63;3.17;;;;;;;;;;5031413;28;20057;-80
2023/02/21 08:06:06;;;;;;;6.45;3.50;;;;;;;;;;5033749;28;20042;-79
2023/02/21 08:08:32;;;;;;;6.70;3.03;;;;;;;;;;5034745;28;20097;-79
2023/02/21 08:10:58;;;;;;;5.68;3.35;;;;;;;;;;5037114;28;20244;-82
2023/02/21 08:13:24;;;;;;;6.60;3.90;;;;;;;;;;5038769;28;20029;-82
2023/02/21 08:15:50;;;;;;;7.72;3.30;;;;;;;;;;5038183;28;20029;-81
2023/02/21 08:18:19;;;;;;;5.65;3.25;;;;;;;;;;5037571;28;20073;-82
2023/02/21 08:20:45;;;;;;;7.53;3.28;;;;;;;;;;5038099;28;20480;-81
2023/02/21 08:23:11;;;;;;;7.38;3.33;;;;;;;;;;5038139;28;20602;-79
2023/02/21 08:25:38;;;;;;;7.55;3.15;;;;;;;;;;5037489;28;20033;-80
2023/02/21 08:28:04;;;;;;;8.48;3.40;;;;;;;;;;5036635;28;20029;-80
2023/02/21 08:30:30;;;;;;;8.15;4.03;;;;;;;;;;5036814;28;20061;-79
2023/02/21 08:32:56;;;;;;;6.57;2.97;;;;;;;;;;5036937;28;20029;-79
2023/02/21 08:35:22;;;;;;;5.68;3.25;;;;;;;;;;5030675;28;20119;-81
2023/02/21 08:37:49;;;;;;;6.50;2.92;;;;;;;;;;5036590;28;20049;-80
2023/02/21 08:40:19;;;;;;;6.80;3.42;;;;;;;;;;5040359;28;20581;-81
2023/02/21 08:42:48;;;;;;;6.22;2.65;;;;;;;;;;5044910;28;20037;-82
2023/02/21 08:45:16;;;;;;;5.78;2.65;;;;;;;;;;5038596;28;20044;-80
2023/02/21 08:47:42;;;;;;;5.85;2.80;;;;;;;;;;5039177;28;20073;-80
2023/02/21 08:50:08;;;;;;;5.93;3.10;;;;;;;;;;5037488;28;20021;-80
2023/02/21 08:52:34;;;;;;;5.53;2.72;;;;;;;;;;5038329;28;20510;-78
2023/02/21 08:55:00;;;;;;;9.18;2.83;;;;;;;;;;5038116;28;20029;-80
2023/02/21 08:57:26;;;;;;;7.53;3.20;;;;;;;;;;5030324;28;20034;-80
2023/02/21 08:59:53;;;;;;;6.10;2.72;;;;;;;;;;5052201;28;20543;-79
2023/02/21 09:02:21;;;;;;;5.85;2.80;;;;;;;;;;5038688;28;20056;-80
2023/02/21 09:04:47;;;;;;;5.32;2.60;;;;;;;;;;5037971;28;20095;-82
2023/02/21 09:07:13;;;;;;;5.07;2.72;;;;;;;;;;5036894;28;20103;-82
2023/02/21 09:09:40;;;;;;;5.30;2.25;;;;;;;;;;5036946;28;20582;-82
2023/02/21 09:12:07;;;;;;;6.03;3.05;;;;;;;;;;5036848;28;20089;-80
2023/02/21 09:14:34;;;;;;;6.45;2.95;;;;;;;;;;5018204;28;20018;-79
2023/02/21 09:17:00;;;;;;;6.22;2.67;;;;;;;;;;5035567;28;20029;-80
2023/02/21 09:19:26;;;;;;;6.00;2.78;;;;;;;;;;5035929;28;20034;-80
2023/02/21 09:21:55;;;;;;;5.20;2.35;;;;;;;;;;5038072;28;20033;-80
2023/02/21 09:24:24;;;;;;;6.13;2.65;;;;;;;;;;5035067;28;20021;-80
2023/02/21 09:26:57;;;;;;;6.32;2.72;;;;;;;;;;5037400;28;20013;-80
2023/02/21 09:29:24;;;;;;;4.80;2.38;;;;;;;;;;5036105;28;20025;-79
2023/02/21 09:31:50;;;;;;;6.43;2.65;;;;;;;;;;5036503;28;20049;-81
2023/02/21 09:34:16;;;;;;;7.10;3.85;;;;;;;;;;5037061;28;20024;-79
2023/02/21 09:36:42;;;;;;;7.95;2.92;;;;;;;;;;5040651;28;20026;-80
2023/02/21 09:39:08;;;;;;;5.57;2.47;;;;;;;;;;5037596;28;20029;-82
2023/02/21 09:41:35;;;;;;;5.45;2.42;;;;;;;;;;5037813;28;20057;-79
2023/02/21 09:44:02;;;;;;;5.50;2.40;;;;;;;;;;5037162;28;20025;-80
2023/02/21 09:46:39;;;;;;;5.38;2.30;;;;;;;;;;5036919;28;20029;-79
2023/02/21 09:49:11;;;;;;;5.93;2.95;;;;;;;;;;5036089;28;20049;-80
2023/02/21 09:51:40;;;;;;;5.03;2.35;;;;;;;;;;5042064;28;20272;-83
2023/02/21 09:54:11;;;;;;;6.03;2.72;;;;;;;;;;5039071;28;20380;-78
2023/02/21 09:56:38;;;;;;;5.20;2.33;;;;;;;;;;5035881;28;20328;-80
2023/02/21 09:59:10;;;;;;;6.47;2.65;;;;;;;;;;5034835;28;20059;-81
2023/02/21 10:01:49;;;;;;;6.60;2.80;;;;;;;;;;5035750;28;20033;-79
2023/02/21 10:04:35;;;;;;;6.18;2.70;;;;;;;;;;5036147;28;20060;-79
2023/02/21 10:07:08;;;;;;;6.15;2.33;;;;;;;;;;5035676;28;20053;-80
2023/02/21 10:09:44;;;;;;;6.10;2.65;;;;;;;;;;5036279;28;20030;-80
2023/02/21 10:12:26;;;;;;;7.22;3.25;;;;;;;;;;5035952;28;20017;-80
2023/02/21 10:15:01;;;;;;;7.30;3.75;;;;;;;;;;5034482;28;20483;-80
2023/02/21 10:17:44;;;;;;;6.95;2.90;;;;;;;;;;5044441;28;20099;-81
2023/02/21 10:20:15;;;;;;;6.68;2.60;;;;;;;;;;5035721;28;20029;-80
2023/02/21 10:22:45;;;;;;;6.38;3.00;;;;;;;;;;5030228;28;20028;-79
2023/02/21 10:25:27;;;;;;;6.93;2.95;;;;;;;;;;5021605;28;20025;-80
2023/02/21 10:27:54;;;;;;;6.70;2.72;;;;;;;;;;5036021;28;20057;-80
2023/02/21 10:30:25;;;;;;;6.43;2.50;;;;;;;;;;5036144;28;20041;-78
2023/02/21 10:32:52;;;;;;;6.35;2.70;;;;;;;;;;5036262;28;20036;-79
2023/02/21 10:35:18;;;;;;;6.70;3.15;;;;;;;;;;5026408;28;20032;-80
2023/02/21 10:37:46;;;;;;;6.22;2.88;;;;;;;;;;5035776;28;20391;-80
2023/02/21 10:40:33;;;;;;;6.38;3.13;;;;;;;;;;5035538;28;20090;-80
2023/02/21 10:43:07;;;;;;;7.97;3.28;;;;;;;;;;5035758;28;20551;-79
2023/02/21 10:45:35;;;;;;;7.53;3.38;;;;;;;;;;5033572;28;20045;-80
2023/02/21 10:48:06;;;;;;;6.15;3.38;;;;;;;;;;5015862;28;20026;-78
2023/02/21 10:50:37;;;;;;;8.07;3.55;;;;;;;;;;5032803;28;20127;-79
2023/02/21 10:53:03;;;;;;;5.30;3.00;;;;;;;;;;5033723;28;20403;-79
2023/02/21 10:55:29;;;;;;;6.57;3.20;;;;;;;;;;5032581;28;20021;-80
2023/02/21 10:57:57;;;;;;;5.70;3.28;;;;;;;;;;5034521;28;20051;-80
2023/02/21 11:00:46;;;;;;;6.88;3.20;;;;;;;;;;5033846;28;20076;-81
2023/02/21 11:03:12;;;;;;;8.73;3.78;;;;;;;;;;5034806;28;20017;-80
2023/02/21 11:05:38;;;;;;;8.85;3.60;;;;;;;;;;5034670;28;20051;-80
2023/02/21 11:08:06;;;;;;;6.05;3.17;;;;;;;;;;5035136;28;20392;-82
2023/02/21 11:10:34;;;;;;;9.05;3.10;;;;;;;;;;5035122;28;20021;-80
2023/02/21 11:13:04;;;;;;;6.63;3.00;;;;;;;;;;5033883;28;20033;-81
2023/02/21 11:15:30;;;;;;;7.35;3.08;;;;;;;;;;5032324;28;20052;-82
2023/02/21 11:18:04;;;;;;;7.00;3.10;;;;;;;;;;5036806;28;20457;-83
2023/02/21 11:20:30;;;;;;;5.80;3.00;;;;;;;;;;5034909;28;20070;-82
2023/02/21 11:22:56;;;;;;;6.05;2.92;;;;;;;;;;5035157;28;20025;-80
2023/02/21 11:25:22;;;;;;;4.97;2.58;;;;;;;;;;5032925;28;20028;-80
2023/02/21 11:28:21;;;;;;;6.13;2.72;;;;;;;;;;5033765;28;20029;-80
2023/02/21 11:30:50;;;;;;;5.63;2.97;;;;;;;;;;5035466;28;20054;-81
2023/02/21 11:33:19;;;;;;;5.38;2.60;;;;;;;;;;5022809;28;20034;-80
2023/02/21 11:35:53;;;;;;;6.30;2.95;;;;;;;;;;5013776;28;20042;-80
2023/02/21 11:38:39;;;;;;;8.82;3.35;;;;;;;;;;5015648;28;20557;-81
2023/02/21 11:41:20;;;;;;;5.95;2.75;;;;;;;;;;5007863;28;20464;-80
2023/02/21 11:43:47;;;;;;;6.55;2.90;;;;;;;;;;5011942;28;20030;-81
2023/02/21 11:46:15;;;;;;;6.30;3.20;;;;;;;;;;5019983;28;20121;-78
2023/02/21 11:48:51;;;;;;;8.57;3.45;;;;;;;;;;5017521;28;20030;-79
2023/02/21 11:51:30;;;;;;;7.75;3.20;;;;;;;;;;5020616;28;20022;-81
2023/02/21 11:53:56;;;;;;;7.35;3.47;;;;;;;;;;5020637;28;20033;-80
2023/02/21 11:56:28;;;;;;;5.15;2.50;;;;;;;;;;5016623;28;20053;-81
2023/02/21 11:59:09;;;;;;;4.85;2.53;;;;;;;;;;5022263;28;20130;-82
2023/02/21 12:01:41;;;;;;;5.82;3.00;;;;;;;;;;5031492;28;20507;-80
2023/02/21 12:04:13;;;;;;;6.25;2.90;;;;;;;;;;5027415;28;20040;-82
2023/02/21 12:06:39;;;;;;;;;;;;;;;;;;5031946;28;20072;-81
2023/02/21 12:09:24;;;;;;;8.27;2.92;;;;;;;;;;5038779;28;19905;-81
2023/02/21 12:11:53;;;;;;;5.30;2.30;;;;;;;;;;5030029;28;20395;-81
2023/02/21 12:14:26;;;;;;;7.22;3.22;;;;;;;;;;5037397;28;20022;-81
2023/02/21 12:17:11;;;;;;;5.15;2.40;;;;;;;;;;5038948;28;20382;-82
2023/02/21 12:20:01;;;;;;;6.00;2.92;;;;;;;;;;5037811;28;20079;-82
2023/02/21 12:22:35;;;;;;;5.55;2.30;;;;;;;;;;5037451;28;20025;-82
2023/02/21 12:25:01;;;;;;;5.88;2.50;;;;;;;;;;5038590;28;20060;-80
2023/02/21 12:27:39;;;;;;;5.20;2.40;;;;;;;;;;5040710;28;20408;-80
2023/02/21 12:30:14;;;;;;;8.20;2.80;;;;;;;;;;5037942;28;20491;-82
2023/02/21 12:32:44;;;;;;;7.65;2.20;;;;;;;;;;5034828;28;20368;-81
2023/02/21 12:35:30;;;;;;;4.32;1.90;;;;;;;;;;5038026;28;20475;-81
2023/02/21 12:38:07;;;;;;;4.28;2.05;;;;;;;;;;5029117;28;20083;-80
2023/02/21 12:40:58;;;;;;;4.47;2.28;;;;;;;;;;5038443;28;20065;-80
2023/02/21 12:43:31;;;;;;;4.80;2.10;;;;;;;;;;5037944;28;20375;-80
2023/02/21 12:45:57;;;;;;;6.25;2.13;;;;;;;;;;5037568;28;20024;-81
2023/02/21 12:48:29;;;;;;;4.97;1.77;;;;;;;;;;5038752;28;20021;-80
2023/02/21 12:50:58;;;;;;;4.88;2.17;;;;;;;;;;5037897;28;20376;-80
2023/02/21 12:53:29;;;;;;;5.13;2.13;;;;;;;;;;5038864;28;20025;-78
2023/02/21 12:56:03;;;;;;;4.68;2.08;;;;;;;;;;5037885;28;20091;-81
2023/02/21 12:58:51;;;;;;;4.70;1.98;;;;;;;;;;5036382;28;20056;-80
2023/02/21 13:01:36;;;;;;;5.00;2.10;;;;;;;;;;5036870;28;20052;-80
2023/02/21 13:04:21;;;;;;;4.47;2.10;;;;;;;;;;5035861;28;20033;-82
2023/02/21 13:06:49;;;;;;;4.07;1.70;;;;;;;;;;5031717;28;20056;-81
2023/02/21 13:09:33;;;;;;;5.53;1.80;;;;;;;;;;5035874;28;20017;-83
2023/02/21 13:12:02;;;;;;;3.60;1.50;;;;;;;;;;5037411;28;20021;-80
2023/02/21 13:14:42;;;;;;;7.38;1.90;;;;;;;;;;5044421;28;20021;-83
2023/02/21 13:17:15;;;;;;;5.22;1.90;;;;;;;;;;5016499;28;20033;-81
2023/02/21 13:19:46;;;;;;;5.20;2.20;;;;;;;;;;5033263;28;20049;-79
2023/02/21 13:22:20;;;;;;;4.13;1.98;;;;;;;;;;5033853;28;20062;-80
2023/02/21 13:24:52;;;;;;;3.40;1.67;;;;;;;;;;5051311;28;20040;-80
2023/02/21 13:27:21;;;;;;;4.65;1.60;;;;;;;;;;5037013;28;20050;-81
2023/02/21 13:29:48;;;;;;;3.53;1.70;;;;;;;;;;5038078;28;20018;-82
2023/02/21 13:32:18;;;;;;;6.97;1.60;;;;;;;;;;5036269;28;20014;-82
2023/02/21 13:34:55;;;;;;;3.42;1.55;;;;;;;;;;5042792;28;20026;-81
2023/02/21 13:37:23;;;;;;;4.38;1.73;;;;;;;;;;5034309;28;20036;-82
2023/02/21 13:39:51;;;;;;;4.35;1.42;;;;;;;;;;5034155;28;20036;-83
2023/02/21 13:42:18;;;;;;;3.90;1.40;;;;;;;;;;5036550;28;20088;-81
2023/02/21 13:44:46;;;;;;;3.45;1.70;;;;;;;;;;5036157;28;20037;-83
2023/02/21 13:47:20;;;;;;;3.90;1.50;;;;;;;;;;5035155;28;20082;-82
2023/02/21 13:49:49;;;;;;;5.03;1.40;;;;;;;;;;5021738;28;20510;-83
2023/02/21 13:52:15;;;;;;;4.50;1.50;;;;;;;;;;5030937;28;20180;-80
2023/02/21 13:55:00;;;;;;;7.72;3.20;;;;;;;;;;5031898;28;20057;-83
2023/02/21 13:57:33;;;;;;;5.28;1.45;;;;;;;;;;5035300;28;20025;-82
2023/02/21 13:59:59;;;;;;;5.30;2.22;;;;;;;;;;5032724;28;20390;-80
2023/02/21 14:02:29;;;;;;;3.95;1.48;;;;;;;;;;5037340;28;20064;-79
2023/02/21 14:04:55;;;;;;;3.97;1.10;;;;;;;;;;5033646;28;20052;-79
2023/02/21 14:07:42;;;;;;;3.05;1.30;;;;;;;;;;5031839;28;20041;-79
2023/02/21 14:10:25;;;;;;;4.93;1.35;;;;;;;;;;5021646;28;20017;-78
2023/02/21 14:12:56;;;;;;;4.50;1.60;;;;;;;;;;5032468;28;20025;-79
2023/02/21 14:15:22;;;;;;;4.13;1.70;;;;;;;;;;5032125;28;20101;-78
2023/02/21 14:17:50;;;;;;;4.47;1.20;;;;;;;;;;5032840;28;20022;-78
2023/02/21 14:20:19;;;;;;;3.28;1.20;;;;;;;;;;5034643;28;20022;-78
2023/02/21 14:22:45;;;;;;;4.07;1.20;;;;;;;;;;5034527;28;20164;-77
2023/02/21 14:25:14;;;;;;;3.53;1.27;;;;;;;;;;5032138;28;20113;-78
2023/02/21 14:27:40;;;;;;;5.88;1.48;;;;;;;;;;5040139;28;20030;-79
2023/02/21 14:30:12;;;;;;;3.47;1.60;;;;;;;;;;5032482;28;20033;-78
2023/02/21 14:32:43;;;;;;;3.63;1.65;;;;;;;;;;5025460;28;20100;-78
2023/02/21 14:35:17;;;;;;;4.05;1.55;;;;;;;;;;5034073;28;20033;-78
2023/02/21 14:37:55;;;;;;;4.82;1.50;;;;;;;;;;5034507;28;20025;-79
2023/02/21 14:40:33;;;;;;;4.90;1.55;;;;;;;;;;5034703;28;20018;-79
2023/02/21 14:43:20;;;;;;;4.20;1.40;;;;;;;;;;5031727;28;20438;-78
2023/02/21 14:46:06;;;;;;;3.40;1.25;;;;;;;;;;5007735;28;20051;-78
2023/02/21 14:48:51;;;;;;;3.90;1.30;;;;;;;;;;5031953;28;20466;-79
2023/02/21 14:51:20;;;;;;;3.45;1.40;;;;;;;;;;5013013;28;20029;-80
2023/02/21 14:56:57;;;;;;;5.18;2.30;;;;;;;;;;5032897;28;20095;-80
2023/02/21 14:59:26;;;;;;;3.70;1.45;;;;;;;;;;5036340;28;20013;-81
2023/02/21 15:01:59;;;;;;;4.78;1.88;;;;;;;;;;5030501;28;20491;-79
2023/02/21 15:04:28;;;;;;;5.53;1.70;;;;;;;;;;5034936;28;20028;-81
2023/02/21 15:07:17;;;;;;;4.93;1.90;;;;;;;;;;5016179;28;20057;-80
2023/02/21 15:09:44;;;;;;;6.10;1.90;;;;;;;;;;5034390;28;20028;-79
2023/02/21 15:12:15;;;;;;;3.80;1.88;;;;;;;;;;5032216;28;20029;-78
2023/02/21 15:14:51;;;;;;;5.70;2.20;;;;;;;;;;5033860;28;20026;-80
2023/02/21 15:17:20;;;;;;;3.33;1.40;;;;;;;;;;5030365;28;20495;-80
2023/02/21 15:19:46;;;;;;;4.40;1.85;;;;;;;;;;5034538;28;20025;-81
2023/02/21 15:22:17;;;;;;;3.55;1.60;;;;;;;;;;5033015;28;20036;-82
2023/02/21 15:24:58;;;;;;;3.20;1.23;;;;;;;;;;5033328;28;20029;-79
2023/02/21 15:27:24;;;;;;;4.00;1.58;;;;;;;;;;5030896;28;20030;-80
2023/02/21 15:30:08;;;;;;;4.22;1.63;;;;;;;;;;5029197;28;20026;-78
2023/02/21 15:32:35;;;;;;;5.03;1.80;;;;;;;;;;5032956;28;20479;-80
2023/02/21 15:35:03;;;;;;;4.75;1.85;;;;;;;;;;5025795;28;20026;-80
2023/02/21 15:37:31;;;;;;;3.92;1.60;;;;;;;;;;5031612;28;20091;-80
2023/02/21 15:40:00;;;;;;;3.65;1.40;;;;;;;;;;5039048;28;20029;-80
2023/02/21 15:42:27;;;;;;;3.28;1.33;;;;;;;;;;5032235;28;20076;-80
2023/02/21 15:45:01;;;;;;;2.78;1.05;;;;;;;;;;5030784;28;20055;-80
2023/02/21 15:47:29;;;;;;;3.30;1.35;;;;;;;;;;5028206;28;20033;-80
2023/02/21 15:49:55;;;;;;;3.88;1.52;;;;;;;;;;5031547;28;20104;-82
2023/02/21 15:52:31;;;;;;;3.88;1.30;;;;;;;;;;5028935;28;20104;-79
2023/02/21 15:55:15;;;;;;;2.90;1.10;;;;;;;;;;5032065;28;20018;-79
2023/02/21 15:57:41;;;;;;;4.05;1.40;;;;;;;;;;5032461;28;20395;-81
2023/02/21 16:00:24;;;;;;;3.72;1.40;;;;;;;;;;5029289;28;20521;-79
2023/02/21 16:02:50;;;;;;;4.35;1.60;;;;;;;;;;5031725;28;20033;-79
2023/02/21 16:05:27;;;;;;;4.05;1.38;;;;;;;;;;5032243;28;20025;-79
2023/02/21 16:07:54;;;;;;;3.00;1.27;;;;;;;;;;5025837;28;20029;-80
2023/02/21 16:10:23;;;;;;;4.95;1.50;;;;;;;;;;5031861;28;20033;-79
2023/02/21 16:13:00;;;;;;;3.95;1.40;;;;;;;;;;5031675;28;20056;-79
2023/02/21 16:15:31;;;;;;;6.10;1.38;;;;;;;;;;5032379;28;20395;-79
2023/02/21 16:18:06;;;;;;;3.95;1.55;;;;;;;;;;5031839;28;20026;-81
2023/02/21 16:20:41;;;;;;;3.13;1.10;;;;;;;;;;5031920;28;20014;-80
2023/02/21 16:23:13;;;;;;;5.45;1.42;;;;;;;;;;5041020;28;20072;-79
2023/02/21 16:25:54;;;;;;;3.65;1.42;;;;;;;;;;5027876;28;20029;-80
2023/02/21 16:28:20;;;;;;;5.60;1.67;;;;;;;;;;5028257;28;20328;-80
2023/02/21 16:30:47;;;;;;;3.78;1.50;;;;;;;;;;5022067;28;20025;-82
2023/02/21 16:33:13;;;;;;;4.15;1.70;;;;;;;;;;5030995;28;20441;-78
2023/02/21 16:35:39;;;;;;;3.70;1.73;;;;;;;;;;5028904;28;20033;-80
2023/02/21 16:38:07;;;;;;;4.80;1.70;;;;;;;;;;5026537;28;20033;-79
2023/02/21 16:40:37;;;;;;;4.55;1.48;;;;;;;;;;5035283;28;20430;-80
2023/02/21 16:43:04;;;;;;;3.63;1.55;;;;;;;;;;5030125;28;20028;-81
2023/02/21 16:45:31;;;;;;;5.30;1.90;;;;;;;;;;5030533;28;20036;-78
2023/02/21 16:48:01;;;;;;;4.05;1.63;;;;;;;;;;5033698;28;20025;-82
2023/02/21 16:50:33;;;;;;;5.35;1.80;;;;;;;;;;5036930;28;20041;-80
2023/02/21 16:53:00;;;;;;;4.15;1.60;;;;;;;;;;5035641;28;20014;-81
2023/02/21 16:55:26;;;;;;;3.58;1.67;;;;;;;;;;5032051;28;20072;-81
2023/02/21 16:57:54;;;;;;;4.30;1.60;;;;;;;;;;5034468;28;20116;-80
2023/02/21 17:00:21;;;;;;;5.68;2.90;;;;;;;;;;5032114;28;20056;-80
2023/02/21 17:02:50;;;;;;;9.82;4.75;;;;;;;;;;5035388;28;20017;-79
2023/02/21 17:05:16;;;;;;;7.15;3.80;;;;;;;;;;5033679;28;20362;-79
2023/02/21 17:07:43;;;;;;;5.68;2.60;;;;;;;;;;5032605;28;20064;-79
2023/02/21 17:10:09;;;;;;;4.07;1.88;;;;;;;;;;5034088;28;20070;-81
2023/02/21 17:12:35;;;;;;;4.40;1.75;;;;;;;;;;5033172;28;20517;-81
2023/02/21 17:15:01;;;;;;;4.07;2.10;;;;;;;;;;5032951;28;20017;-81
2023/02/21 17:17:27;;;;;;;3.92;1.70;;;;;;;;;;5032127;28;20590;-80
2023/02/21 17:19:53;;;;;;;5.20;2.17;;;;;;;;;;5031934;28;20027;-80
2023/02/21 17:22:19;;;;;;;4.63;2.35;;;;;;;;;;5030042;28;20064;-80